Time;durP1;ratioP1;P1;durP2;ratioP2;P2;SDS_P1;SDS_P2;PMS_P1;PMS_P2;Temp;Humidity;BMP_temperature;BMP_pressure;BME280_temperature;BME280_humidity;BME280_pressure;Samples;Min_cycle;Max_cycle;Signal;HPM_P1;HPM_P2
2022/06/05 00:01:29;;;;;;;19.60;8.70;;;14.30;99.90;;;;;;5027097;28;20045;-65
2022/06/05 00:04:08;;;;;;;18.55;8.90;;;14.30;99.90;;;;;;5019840;28;20056;-65
2022/06/05 00:07:05;;;;;;;20.70;9.52;;;14.30;99.90;;;;;;5018911;28;20036;-62
2022/06/05 00:09:36;;;;;;;21.80;9.60;;;14.30;99.90;;;;;;5019771;28;20037;-62
2022/06/05 00:12:18;;;;;;;18.63;8.70;;;14.20;99.90;;;;;;5018778;28;21565;-63
2022/06/05 00:14:44;;;;;;;20.83;9.83;;;14.20;99.90;;;;;;5021069;28;20269;-64
2022/06/05 00:17:19;;;;;;;22.77;9.43;;;14.20;99.90;;;;;;5019964;28;20259;-62
2022/06/05 00:19:48;;;;;;;20.15;8.50;;;14.20;99.90;;;;;;5019863;28;20417;-62
2022/06/05 00:22:14;;;;;;;18.88;8.68;;;14.20;99.90;;;;;;5030318;28;20040;-62
2022/06/05 00:24:40;;;;;;;20.92;8.73;;;14.20;99.90;;;;;;5028224;28;20112;-64
2022/06/05 00:27:12;;;;;;;22.90;9.48;;;14.20;99.90;;;;;;5031325;28;20469;-62
2022/06/05 00:30:05;;;;;;;25.63;9.87;;;14.20;99.90;;;;;;5015575;28;20046;-62
2022/06/05 00:32:41;;;;;;;18.80;8.70;;;14.20;99.90;;;;;;5013664;28;20149;-64
2022/06/05 00:35:09;;;;;;;20.55;9.32;;;14.20;99.90;;;;;;5013493;28;20026;-64
2022/06/05 00:37:41;;;;;;;20.73;9.48;;;14.20;99.90;;;;;;5013329;28;20069;-60
2022/06/05 00:40:24;;;;;;;18.50;8.68;;;14.20;99.90;;;;;;5012438;28;20041;-64
2022/06/05 00:42:50;;;;;;;21.20;9.73;;;14.20;99.90;;;;;;5014131;28;20026;-61
2022/06/05 00:45:16;;;;;;;18.95;8.82;;;14.20;99.90;;;;;;5024527;28;20354;-63
2022/06/05 00:47:44;;;;;;;26.00;10.32;;;14.20;99.90;;;;;;5045289;28;20060;-62
2022/06/05 00:50:15;;;;;;;18.58;8.38;;;14.20;99.90;;;;;;5033981;28;20010;-62
2022/06/05 00:52:44;;;;;;;24.17;10.40;;;14.20;99.90;;;;;;5030624;28;20037;-62
2022/06/05 00:55:10;;;;;;;23.73;10.18;;;14.20;99.90;;;;;;5033841;28;20018;-64
2022/06/05 00:57:38;;;;;;;19.10;8.48;;;14.20;99.90;;;;;;5033695;28;20041;-61
2022/06/05 01:00:13;;;;;;;23.88;9.43;;;14.20;99.90;;;;;;5033499;28;20072;-61
2022/06/05 01:02:41;;;;;;;22.38;10.30;;;14.20;99.90;;;;;;5033367;28;20100;-63
2022/06/05 01:05:09;;;;;;;18.77;8.88;;;14.20;99.90;;;;;;5032813;28;20101;-62
2022/06/05 01:07:35;;;;;;;21.55;9.85;;;14.20;99.90;;;;;;5033628;28;20029;-64
2022/06/05 01:10:00;;;;;;;21.13;9.30;;;14.20;99.90;;;;;;5032976;28;20037;-61
2022/06/05 01:12:36;;;;;;;23.23;9.82;;;14.20;99.90;;;;;;5033101;28;20405;-60
2022/06/05 01:15:13;;;;;;;23.73;9.45;;;14.20;99.90;;;;;;5033164;28;20025;-61
2022/06/05 01:17:55;;;;;;;18.85;10.05;;;14.20;99.90;;;;;;5032691;28;20021;-61
2022/06/05 01:20:30;;;;;;;21.10;9.50;;;14.20;99.90;;;;;;5030630;28;20029;-60
2022/06/05 01:23:12;;;;;;;23.65;9.38;;;14.10;99.90;;;;;;5034847;28;20029;-60
2022/06/05 01:25:53;;;;;;;20.90;8.77;;;14.20;99.90;;;;;;5039618;28;20358;-64
2022/06/05 01:28:26;;;;;;;21.20;8.98;;;14.20;99.90;;;;;;5032505;28;20021;-61
2022/06/05 01:30:56;;;;;;;18.75;8.98;;;14.20;99.90;;;;;;5032542;28;20044;-62
2022/06/05 01:33:25;;;;;;;20.17;9.77;;;14.20;99.90;;;;;;5032473;28;20068;-63
2022/06/05 01:35:59;;;;;;;22.55;10.13;;;14.20;99.90;;;;;;5032856;28;20033;-61
2022/06/05 01:38:38;;;;;;;22.17;9.90;;;14.20;99.90;;;;;;5032082;28;20025;-65
2022/06/05 01:41:11;;;;;;;18.75;8.98;;;14.20;99.90;;;;;;5032667;28;20023;-60
2022/06/05 01:43:42;;;;;;;19.42;9.43;;;14.20;99.90;;;;;;5032675;28;20029;-61
2022/06/05 01:46:10;;;;;;;24.05;11.13;;;14.20;99.90;;;;;;5032490;28;20083;-61
2022/06/05 01:48:44;;;;;;;18.98;8.68;;;14.20;99.90;;;;;;5032080;28;20092;-61
2022/06/05 01:51:19;;;;;;;20.98;9.40;;;14.20;99.90;;;;;;5020295;28;20029;-61
2022/06/05 01:53:48;;;;;;;21.60;9.23;;;14.20;99.90;;;;;;5026577;28;20080;-60
2022/06/05 01:56:25;;;;;;;18.67;9.45;;;14.20;99.90;;;;;;5031907;28;20024;-61
2022/06/05 01:58:55;;;;;;;21.17;8.95;;;14.20;99.90;;;;;;5032063;28;20025;-61
2022/06/05 02:01:26;;;;;;;20.52;9.40;;;14.20;99.90;;;;;;5031909;28;20029;-64
2022/06/05 02:04:10;;;;;;;20.23;9.30;;;14.20;99.90;;;;;;5032206;28;20021;-62
2022/06/05 02:06:41;;;;;;;26.23;9.80;;;14.20;99.90;;;;;;5031878;28;20074;-62
2022/06/05 02:09:50;;;;;;;22.10;9.85;;;14.20;99.90;;;;;;5031922;28;20108;-59
2022/06/05 02:12:16;;;;;;;21.17;9.43;;;14.20;99.90;;;;;;5030494;28;20053;-60
2022/06/05 02:14:42;;;;;;;22.38;9.40;;;14.20;99.90;;;;;;5031706;28;20033;-61
2022/06/05 02:17:10;;;;;;;19.10;8.82;;;14.20;99.90;;;;;;5031693;28;20025;-61
2022/06/05 02:19:36;;;;;;;21.80;9.77;;;14.20;99.90;;;;;;5031844;28;20146;-61
2022/06/05 02:22:08;;;;;;;23.17;10.90;;;14.20;99.90;;;;;;5031714;28;20449;-64
2022/06/05 02:24:33;;;;;;;19.08;8.90;;;14.20;99.90;;;;;;5031965;28;20071;-63
2022/06/05 02:27:02;;;;;;;19.65;9.13;;;14.20;99.90;;;;;;5030438;28;20034;-61
2022/06/05 02:29:28;;;;;;;20.17;9.10;;;14.20;99.90;;;;;;5031110;28;20101;-61
2022/06/05 02:32:24;;;;;;;27.15;11.90;;;14.20;99.90;;;;;;5019887;28;20033;-61
2022/06/05 02:35:13;;;;;;;24.15;10.10;;;14.20;99.90;;;;;;5011749;28;20029;-61
2022/06/05 02:37:58;;;;;;;20.70;9.68;;;14.20;99.90;;;;;;5010838;28;20147;-61
2022/06/05 02:40:50;;;;;;;20.50;9.60;;;14.30;99.90;;;;;;5011713;28;20085;-61
2022/06/05 02:43:37;;;;;;;;;;;14.30;99.90;;;;;;5012174;28;20026;-60
2022/06/05 02:46:19;;;;;;;18.67;8.80;;;14.30;99.90;;;;;;5011960;28;19901;-62
2022/06/05 02:48:58;;;;;;;;;;;14.40;99.90;;;;;;5012401;28;20022;-61
2022/06/05 02:51:33;;;;;;;17.05;8.20;;;14.40;99.90;;;;;;5011255;28;19905;-61
2022/06/05 02:53:59;;;;;;;19.88;9.40;;;14.40;99.90;;;;;;5011371;28;20463;-61
2022/06/05 02:56:27;;;;;;;20.65;9.57;;;14.40;99.90;;;;;;5012123;28;20057;-61
2022/06/05 02:58:55;;;;;;;15.50;8.00;;;14.40;99.90;;;;;;5011933;28;20117;-62
2022/06/05 03:04:09;;;;;;;21.70;9.40;;;14.50;99.90;;;;;;5014169;28;20076;-62
2022/06/05 03:06:36;;;;;;;24.15;10.40;;;14.50;99.90;;;;;;5016128;28;20025;-62
2022/06/05 03:09:02;;;;;;;21.38;9.55;;;14.40;99.90;;;;;;5015959;28;20018;-61
2022/06/05 03:11:29;;;;;;;20.58;9.50;;;14.40;99.90;;;;;;5016246;28;20025;-61
2022/06/05 03:13:57;;;;;;;19.98;8.90;;;14.50;99.90;;;;;;5017651;28;20025;-61
2022/06/05 03:16:23;;;;;;;22.63;10.00;;;14.50;99.90;;;;;;5035720;28;20017;-61
2022/06/05 03:18:49;;;;;;;21.13;9.43;;;14.50;99.90;;;;;;5036033;28;20029;-61
2022/06/05 03:21:14;;;;;;;20.67;8.80;;;14.50;99.90;;;;;;5034289;28;20358;-61
2022/06/05 03:23:40;;;;;;;19.45;8.90;;;14.50;99.90;;;;;;5035630;28;20079;-61
2022/06/05 03:26:09;;;;;;;18.30;9.05;;;14.50;99.90;;;;;;5035169;28;20039;-62
2022/06/05 03:28:35;;;;;;;20.83;10.38;;;14.40;99.90;;;;;;5035495;28;20460;-62
2022/06/05 03:31:04;;;;;;;19.63;10.27;;;14.40;99.90;;;;;;5033380;28;22009;-61
2022/06/05 03:33:30;;;;;;;20.70;8.93;;;14.40;99.90;;;;;;5035328;28;20501;-60
2022/06/05 03:35:56;;;;;;;20.10;9.45;;;14.40;99.90;;;;;;5035178;28;20104;-63
2022/06/05 03:38:21;;;;;;;22.23;9.95;;;14.40;99.90;;;;;;5035553;28;20473;-63
2022/06/05 03:40:47;;;;;;;22.48;8.88;;;14.40;99.90;;;;;;5035643;28;20025;-61
2022/06/05 03:43:14;;;;;;;23.02;8.93;;;14.40;99.90;;;;;;5035596;28;20112;-62
2022/06/05 03:45:39;;;;;;;20.02;10.07;;;14.40;99.90;;;;;;5035109;28;20528;-62
2022/06/05 03:48:06;;;;;;;22.50;9.93;;;14.40;99.90;;;;;;5035002;28;20096;-62
2022/06/05 03:50:31;;;;;;;22.63;9.93;;;14.40;99.90;;;;;;5034751;28;20397;-62
2022/06/05 03:52:58;;;;;;;20.73;9.23;;;14.40;99.90;;;;;;5045684;28;20041;-62
2022/06/05 03:55:25;;;;;;;20.65;9.77;;;14.40;99.90;;;;;;5034673;28;20017;-62
2022/06/05 03:57:51;;;;;;;23.35;9.68;;;14.40;99.90;;;;;;5034490;28;20021;-62
2022/06/05 04:00:19;;;;;;;19.10;10.05;;;14.40;99.90;;;;;;5034954;28;20100;-61
2022/06/05 04:02:45;;;;;;;21.67;9.25;;;14.40;99.90;;;;;;5035019;28;20025;-61
2022/06/05 04:05:16;;;;;;;20.17;10.60;;;14.40;99.90;;;;;;5034779;28;20022;-62
2022/06/05 04:07:41;;;;;;;21.30;9.23;;;14.50;99.90;;;;;;5034822;28;20041;-62
2022/06/05 04:10:10;;;;;;;21.55;9.40;;;14.50;99.90;;;;;;5034770;28;20025;-62
2022/06/05 04:12:35;;;;;;;20.45;10.05;;;14.50;99.90;;;;;;5034450;28;20112;-62
2022/06/05 04:15:01;;;;;;;20.00;8.68;;;14.50;99.90;;;;;;5033844;28;20560;-62
2022/06/05 04:17:27;;;;;;;19.40;8.93;;;14.50;99.90;;;;;;5034805;28;20432;-62
2022/06/05 04:19:53;;;;;;;21.58;9.32;;;14.50;99.90;;;;;;5034339;28;20026;-61
2022/06/05 04:22:19;;;;;;;22.52;8.20;;;14.50;99.90;;;;;;5033168;28;20026;-62
2022/06/05 04:24:45;;;;;;;21.25;9.60;;;14.50;99.90;;;;;;5034586;28;20183;-62
2022/06/05 04:27:11;;;;;;;22.33;9.90;;;14.60;99.90;;;;;;5033849;28;20126;-62
2022/06/05 04:29:37;;;;;;;21.77;9.55;;;14.60;99.90;;;;;;5034161;28;20489;-65
2022/06/05 04:32:03;;;;;;;17.63;8.00;;;14.60;99.90;;;;;;5033006;28;20416;-64
2022/06/05 04:34:29;;;;;;;18.25;8.85;;;14.60;99.90;;;;;;5034149;28;20025;-62
2022/06/05 04:36:54;;;;;;;22.88;8.73;;;14.60;99.90;;;;;;5034250;28;20135;-62
2022/06/05 04:39:20;;;;;;;20.77;9.68;;;14.60;99.90;;;;;;5034130;28;20017;-62
2022/06/05 04:41:46;;;;;;;18.15;8.95;;;14.60;99.90;;;;;;5033037;28;20033;-62
2022/06/05 04:44:14;;;;;;;20.08;9.38;;;14.60;99.90;;;;;;5034409;28;20017;-62
2022/06/05 04:46:40;;;;;;;20.30;8.25;;;14.70;99.90;;;;;;5033030;28;20487;-61
2022/06/05 04:49:09;;;;;;;22.60;9.32;;;14.70;99.90;;;;;;5034120;28;20108;-63
2022/06/05 04:51:36;;;;;;;17.38;7.70;;;14.70;99.90;;;;;;5032370;28;20025;-63
2022/06/05 04:54:04;;;;;;;19.25;9.00;;;14.70;99.90;;;;;;5032591;28;20025;-63
2022/06/05 04:56:32;;;;;;;20.08;8.85;;;14.70;99.90;;;;;;5033681;28;20026;-61
2022/06/05 04:58:58;;;;;;;21.35;9.85;;;14.60;99.90;;;;;;5032352;28;20021;-63
2022/06/05 05:01:29;;;;;;;25.67;10.02;;;14.70;99.90;;;;;;5032324;28;20083;-63
2022/06/05 05:03:58;;;;;;;21.90;10.13;;;14.70;99.90;;;;;;5033955;28;20013;-61
2022/06/05 05:06:24;;;;;;;24.90;11.32;;;14.70;99.90;;;;;;5034140;28;20030;-61
2022/06/05 05:08:50;;;;;;;18.42;8.95;;;14.80;99.90;;;;;;5033451;28;20407;-61
2022/06/05 05:11:17;;;;;;;19.60;8.93;;;14.80;99.90;;;;;;5033908;28;20060;-61
2022/06/05 05:13:42;;;;;;;22.13;9.70;;;14.80;99.90;;;;;;5034022;28;20025;-61
2022/06/05 05:16:08;;;;;;;20.15;8.57;;;14.80;99.90;;;;;;5034240;28;20033;-61
2022/06/05 05:18:34;;;;;;;21.55;8.77;;;14.90;99.90;;;;;;5033544;28;20073;-61
2022/06/05 05:21:12;;;;;;;20.38;9.88;;;14.90;99.90;;;;;;5032289;28;20432;-61
2022/06/05 05:23:38;;;;;;;19.80;8.65;;;14.90;99.90;;;;;;5033074;28;20028;-60
2022/06/05 05:26:13;;;;;;;21.27;10.23;;;15.00;99.90;;;;;;5032486;28;20026;-62
2022/06/05 05:28:39;;;;;;;21.90;10.30;;;15.00;99.90;;;;;;5033724;28;20371;-61
2022/06/05 05:31:11;;;;;;;21.33;9.23;;;15.00;99.90;;;;;;5032505;28;20054;-61
2022/06/05 05:33:38;;;;;;;22.20;9.35;;;15.10;99.90;;;;;;5032831;28;20143;-61
2022/06/05 05:36:04;;;;;;;17.45;8.77;;;15.00;99.90;;;;;;5030759;28;20030;-63
2022/06/05 05:38:30;;;;;;;20.63;9.57;;;15.10;99.90;;;;;;5032117;28;20029;-61
2022/06/05 05:43:40;;;;;;;19.73;8.57;;;15.10;99.90;;;;;;5032927;28;20160;-62
2022/06/05 05:46:10;;;;;;;23.10;9.70;;;15.20;99.90;;;;;;5033311;28;20104;-62
2022/06/05 05:48:36;;;;;;;21.38;9.02;;;15.20;99.90;;;;;;5030944;28;20465;-61
2022/06/05 05:51:02;;;;;;;20.55;9.18;;;15.30;99.90;;;;;;5032921;28;20033;-60
2022/06/05 05:53:27;;;;;;;22.48;8.35;;;15.30;99.90;;;;;;5032549;28;20033;-61
2022/06/05 05:55:53;;;;;;;21.48;10.13;;;15.30;99.90;;;;;;5031168;28;20022;-62
2022/06/05 05:58:18;;;;;;;17.67;7.30;;;15.40;99.90;;;;;;5032673;28;20033;-61
2022/06/05 06:00:44;;;;;;;23.67;9.80;;;15.40;99.90;;;;;;5032279;28;20052;-61
2022/06/05 06:03:10;;;;;;;18.75;8.50;;;15.40;99.90;;;;;;5031830;28;20542;-62
2022/06/05 06:05:35;;;;;;;21.05;9.18;;;15.50;99.90;;;;;;5032304;28;20072;-61
2022/06/05 06:08:01;;;;;;;19.17;9.40;;;15.50;99.90;;;;;;5035152;28;20037;-61
2022/06/05 06:10:27;;;;;;;19.48;8.55;;;15.50;99.90;;;;;;5032312;28;20029;-64
2022/06/05 06:12:52;;;;;;;20.52;8.75;;;15.50;99.90;;;;;;5032397;28;20037;-61
2022/06/05 06:15:18;;;;;;;20.35;8.77;;;15.50;99.90;;;;;;5032954;28;20032;-61
2022/06/05 06:17:43;;;;;;;17.98;8.90;;;15.50;99.90;;;;;;5032512;28;20029;-61
2022/06/05 06:20:12;;;;;;;19.05;8.43;;;15.50;99.90;;;;;;5032770;28;20029;-61
2022/06/05 06:22:38;;;;;;;18.30;8.95;;;15.60;99.90;;;;;;5033246;28;20468;-62
2022/06/05 06:25:05;;;;;;;19.50;7.82;;;15.60;99.90;;;;;;5032389;28;20029;-61
2022/06/05 06:27:33;;;;;;;19.70;8.60;;;15.60;99.90;;;;;;5032431;28;20021;-62
2022/06/05 06:29:59;;;;;;;21.90;9.68;;;15.60;99.90;;;;;;5019076;28;20046;-62
2022/06/05 06:32:25;;;;;;;21.00;9.40;;;15.70;99.90;;;;;;5024189;28;20049;-64
2022/06/05 06:34:51;;;;;;;19.70;10.02;;;15.60;99.90;;;;;;5030634;28;20028;-65
2022/06/05 06:37:16;;;;;;;19.05;9.13;;;15.60;99.90;;;;;;5032240;28;20026;-62
2022/06/05 06:39:42;;;;;;;19.48;9.50;;;15.50;99.90;;;;;;5031361;28;20036;-64
2022/06/05 06:42:08;;;;;;;22.17;10.38;;;15.40;99.90;;;;;;5031628;28;20087;-62
2022/06/05 06:44:34;;;;;;;20.75;10.40;;;15.10;99.90;;;;;;5031681;28;20742;-60
2022/06/05 06:46:59;;;;;;;20.00;10.10;;;15.00;99.90;;;;;;5031939;28;20018;-60
2022/06/05 06:49:25;;;;;;;21.45;10.27;;;14.80;99.90;;;;;;5030107;28;20479;-63
2022/06/05 06:51:51;;;;;;;21.17;9.98;;;14.80;99.90;;;;;;5031362;28;20065;-63
2022/06/05 06:54:16;;;;;;;23.92;10.13;;;14.70;99.90;;;;;;5033006;28;20025;-63
2022/06/05 06:56:43;;;;;;;22.17;11.52;;;14.70;99.90;;;;;;5039928;28;20051;-60
2022/06/05 06:59:08;;;;;;;22.80;10.77;;;14.70;99.90;;;;;;5049624;28;20021;-61
2022/06/05 07:01:34;;;;;;;23.10;10.80;;;14.60;99.90;;;;;;5019293;28;21714;-61
2022/06/05 07:04:00;;;;;;;22.23;10.48;;;14.70;99.90;;;;;;5032173;28;20028;-62
2022/06/05 07:06:26;;;;;;;22.90;11.38;;;14.70;99.90;;;;;;5031596;28;20061;-63
2022/06/05 07:08:52;;;;;;;24.73;11.02;;;14.80;99.90;;;;;;5031941;28;20056;-65
2022/06/05 07:11:19;;;;;;;23.58;11.63;;;14.80;99.90;;;;;;5030839;28;20026;-60
2022/06/05 07:13:45;;;;;;;23.73;11.15;;;14.90;99.90;;;;;;5030991;28;20029;-61
2022/06/05 07:16:11;;;;;;;22.45;10.68;;;14.90;99.90;;;;;;5031491;28;20022;-61
2022/06/05 07:18:38;;;;;;;23.63;10.95;;;15.00;99.90;;;;;;5032053;28;20112;-61
2022/06/05 07:21:11;;;;;;;21.75;10.88;;;15.10;99.90;;;;;;5029741;28;20029;-62
2022/06/05 07:23:37;;;;;;;22.23;10.70;;;15.10;99.90;;;;;;5031311;28;20021;-61
2022/06/05 07:26:04;;;;;;;22.77;11.43;;;15.10;99.90;;;;;;5031959;28;20021;-63
2022/06/05 07:28:30;;;;;;;27.63;12.82;;;15.10;99.90;;;;;;5030956;28;20030;-64
2022/06/05 07:30:56;;;;;;;23.95;11.60;;;15.20;99.90;;;;;;5031304;28;20457;-61
2022/06/05 07:33:23;;;;;;;24.00;12.02;;;15.20;99.90;;;;;;5031003;28;20041;-61
2022/06/05 07:35:55;;;;;;;22.10;11.40;;;15.30;99.90;;;;;;5031636;28;20021;-62
2022/06/05 07:38:21;;;;;;;25.70;12.20;;;15.30;99.90;;;;;;5013219;28;20022;-64
2022/06/05 07:40:46;;;;;;;23.55;11.75;;;15.40;99.90;;;;;;5031433;28;20029;-61
2022/06/05 07:43:12;;;;;;;22.67;11.23;;;15.40;99.90;;;;;;5030702;28;20025;-62
2022/06/05 07:45:38;;;;;;;22.88;11.15;;;15.40;99.90;;;;;;5031604;28;20040;-64
2022/06/05 07:48:05;;;;;;;23.58;11.65;;;15.50;99.90;;;;;;5032004;28;20017;-64
2022/06/05 07:50:31;;;;;;;24.33;11.52;;;15.60;99.90;;;;;;5031946;28;20116;-62
2022/06/05 07:55:41;;;;;;;23.88;11.73;;;15.60;99.90;;;;;;5015324;28;20381;-61
2022/06/05 07:58:07;;;;;;;21.63;11.43;;;15.70;99.90;;;;;;5015423;28;20026;-63
2022/06/05 08:00:32;;;;;;;24.02;11.60;;;15.80;99.90;;;;;;5032320;28;20029;-62
2022/06/05 08:02:58;;;;;;;19.73;10.68;;;15.80;99.90;;;;;;5033986;28;20037;-66
2022/06/05 08:05:24;;;;;;;22.52;11.25;;;15.90;99.90;;;;;;5034941;28;20057;-64
2022/06/05 08:07:49;;;;;;;22.83;11.05;;;16.00;99.90;;;;;;5034094;28;20339;-65
2022/06/05 08:10:15;;;;;;;23.17;11.50;;;16.10;99.90;;;;;;5035168;28;20448;-61
2022/06/05 08:12:41;;;;;;;22.30;11.55;;;16.10;99.90;;;;;;5035030;28;20450;-63
2022/06/05 08:15:12;;;;;;;21.17;10.88;;;16.20;99.90;;;;;;5034745;28;20034;-62
2022/06/05 08:17:38;;;;;;;21.70;10.35;;;16.30;99.90;;;;;;5034613;28;20102;-65
2022/06/05 08:20:06;;;;;;;21.13;10.98;;;16.50;99.90;;;;;;5034720;28;20026;-60
2022/06/05 08:22:32;;;;;;;20.00;10.65;;;16.60;99.90;;;;;;5033754;28;20044;-60
2022/06/05 08:24:57;;;;;;;20.30;10.30;;;16.80;99.90;;;;;;5034194;28;20377;-61
2022/06/05 08:27:25;;;;;;;20.90;10.40;;;17.00;99.90;;;;;;5034420;28;20108;-64
2022/06/05 08:29:57;;;;;;;20.95;10.85;;;17.20;99.90;;;;;;5034047;28;20501;-60
2022/06/05 08:32:25;;;;;;;18.40;9.90;;;17.40;99.90;;;;;;5025036;28;20045;-65
2022/06/05 08:34:51;;;;;;;19.33;9.55;;;17.60;99.90;;;;;;5033844;28;20068;-61
2022/06/05 08:43:16;;;;;;;18.90;10.15;;;18.40;99.90;;;;;;5033736;28;20024;-61
2022/06/05 08:45:46;;;;;;;19.65;9.93;;;18.60;99.90;;;;;;5039651;28;20075;-62
2022/06/05 08:48:28;;;;;;;17.80;9.63;;;18.80;99.90;;;;;;5054756;28;20052;-64
2022/06/05 08:50:58;;;;;;;19.58;9.85;;;19.10;99.90;;;;;;5033600;28;20071;-64
2022/06/05 08:53:47;;;;;;;18.80;9.98;;;19.30;99.90;;;;;;5048554;28;20091;-64
2022/06/05 08:56:36;;;;;;;18.63;9.45;;;19.50;99.90;;;;;;5033950;28;20025;-64
2022/06/05 08:59:13;;;;;;;19.65;9.63;;;19.70;99.90;;;;;;5033785;28;20476;-61
2022/06/05 09:02:00;;;;;;;19.48;9.75;;;19.90;99.90;;;;;;5033050;28;20033;-65
2022/06/05 09:04:32;;;;;;;20.25;9.05;;;20.10;99.90;;;;;;5014421;28;20049;-62
2022/06/05 09:07:02;;;;;;;19.00;9.48;;;20.40;99.90;;;;;;5023062;28;20100;-60
2022/06/05 09:09:43;;;;;;;14.45;8.15;;;20.60;99.90;;;;;;5034267;28;20032;-61
2022/06/05 09:12:45;;;;;;;18.00;9.73;;;20.90;99.90;;;;;;5030277;28;20033;-62
2022/06/05 09:15:18;;;;;;;13.73;8.38;;;21.30;99.90;;;;;;5030933;28;20481;-61
2022/06/05 09:17:53;;;;;;;16.73;8.30;;;21.70;99.90;;;;;;5033925;28;20064;-65
2022/06/05 09:20:20;;;;;;;14.07;8.35;;;22.00;99.90;;;;;;5031664;28;20465;-65
2022/06/05 09:22:57;;;;;;;16.52;8.55;;;22.30;99.90;;;;;;5032523;28;20467;-61
2022/06/05 09:25:44;;;;;;;13.18;7.35;;;22.70;99.90;;;;;;5033648;28;20198;-61
2022/06/05 09:28:19;;;;;;;14.43;8.18;;;23.10;99.90;;;;;;5020963;28;20346;-60
2022/06/05 09:31:03;;;;;;;14.48;7.80;;;23.40;99.90;;;;;;5033509;28;20064;-62
2022/06/05 09:33:36;;;;;;;15.35;8.38;;;23.50;99.90;;;;;;5033039;28;20044;-63
2022/06/05 09:36:07;;;;;;;13.25;7.90;;;23.50;99.90;;;;;;5032062;28;20055;-61
2022/06/05 09:38:48;;;;;;;13.50;7.63;;;23.50;99.90;;;;;;5033548;28;20163;-63
2022/06/05 09:41:37;;;;;;;14.57;8.70;;;23.50;99.90;;;;;;5032082;28;20021;-61
2022/06/05 09:44:21;;;;;;;13.13;8.57;;;23.60;99.90;;;;;;5040837;28;20043;-65
2022/06/05 09:46:52;;;;;;;15.52;9.07;;;23.80;99.90;;;;;;5053084;28;20025;-62
2022/06/05 09:49:18;;;;;;;13.77;8.43;;;24.20;99.90;;;;;;5040770;28;20033;-62
2022/06/05 09:51:45;;;;;;;15.85;8.80;;;24.60;99.50;;;;;;5036480;28;20021;-61
2022/06/05 09:54:29;;;;;;;14.68;8.70;;;24.90;99.00;;;;;;5037850;28;20499;-63
2022/06/05 10:00:26;;;;;;;15.88;9.05;;;25.60;97.90;;;;;;5029146;28;20369;-66
2022/06/05 10:02:56;;;;;;;14.35;8.68;;;25.90;97.20;;;;;;5039753;28;20021;-63
2022/06/05 10:05:26;;;;;;;16.75;8.68;;;26.10;97.40;;;;;;5032841;28;20464;-61
2022/06/05 10:07:58;;;;;;;13.60;8.27;;;26.60;96.00;;;;;;5033158;28;20013;-62
2022/06/05 10:10:32;;;;;;;;;;;26.90;95.80;;;;;;5033272;28;20035;-62
2022/06/05 10:13:08;;;;;;;16.55;9.10;;;27.20;95.30;;;;;;5034115;28;19921;-62
2022/06/05 10:16:03;;;;;;;15.93;9.23;;;27.50;95.10;;;;;;5032774;28;20067;-64
2022/06/05 10:18:40;;;;;;;15.98;9.82;;;27.90;94.40;;;;;;5032900;28;20030;-64
2022/06/05 10:21:14;;;;;;;16.23;9.07;;;28.00;94.30;;;;;;5031216;28;20068;-62
2022/06/05 10:23:40;;;;;;;15.82;9.32;;;28.10;93.60;;;;;;5032711;28;20119;-61
2022/06/05 10:26:29;;;;;;;15.48;9.45;;;28.00;93.40;;;;;;5032797;28;20053;-62
2022/06/05 10:29:14;;;;;;;18.92;11.02;;;27.90;93.20;;;;;;5038275;28;20038;-62
2022/06/05 10:32:05;;;;;;;16.65;9.60;;;27.90;93.50;;;;;;5031694;28;20091;-62
2022/06/05 10:34:58;;;;;;;15.43;8.98;;;27.80;93.10;;;;;;5032081;28;20132;-62
2022/06/05 10:37:28;;;;;;;;;;;27.80;93.20;;;;;;5032805;28;20480;-65
2022/06/05 10:40:00;;;;;;;15.55;9.55;;;27.80;93.30;;;;;;5032262;28;19943;-62
2022/06/05 10:42:44;;;;;;;15.38;9.43;;;27.80;93.00;;;;;;5032748;28;20044;-64
2022/06/05 10:45:39;;;;;;;15.75;9.75;;;27.80;93.10;;;;;;5032888;28;20045;-63
2022/06/05 10:48:12;;;;;;;16.48;9.60;;;27.90;92.70;;;;;;5044362;28;20018;-61
2022/06/05 10:50:53;;;;;;;15.73;9.25;;;28.20;92.30;;;;;;5030948;28;20026;-62
2022/06/05 10:53:52;;;;;;;20.05;9.82;;;28.60;92.00;;;;;;5032532;28;20040;-62
2022/06/05 10:56:50;;;;;;;22.55;13.73;;;29.10;91.40;;;;;;5013316;28;20033;-62
2022/06/05 10:59:30;;;;;;;16.02;10.63;;;29.30;90.70;;;;;;5032598;28;20017;-64
2022/06/05 11:02:29;;;;;;;15.38;9.90;;;29.40;90.70;;;;;;5032555;28;20045;-62
2022/06/05 11:05:20;;;;;;;17.45;9.80;;;29.50;90.30;;;;;;5032247;28;20014;-63
2022/06/05 11:07:51;;;;;;;16.85;9.77;;;29.60;90.20;;;;;;5032115;28;20021;-64
2022/06/05 11:13:39;;;;;;;15.30;9.57;;;29.60;90.10;;;;;;5031190;28;20021;-63
2022/06/05 11:13:42;;;;;;;12.57;9.13;;;29.70;90.20;;;;;;5032504;28;20049;-62
2022/06/05 11:16:24;;;;;;;14.25;8.48;;;30.00;90.00;;;;;;5050932;28;20044;-65
2022/06/05 11:19:11;;;;;;;15.63;9.82;;;30.40;88.40;;;;;;5022823;28;20026;-62
2022/06/05 11:21:41;;;;;;;16.50;9.07;;;30.30;88.30;;;;;;5012176;28;20030;-62
2022/06/05 11:24:13;;;;;;;16.63;10.48;;;30.10;89.00;;;;;;5028845;28;20112;-63
2022/06/05 11:27:10;;;;;;;15.98;9.32;;;30.00;88.40;;;;;;5030870;28;20041;-61
2022/06/05 11:30:04;;;;;;;18.42;9.93;;;29.90;88.70;;;;;;5019809;28;20044;-66
2022/06/05 11:32:58;;;;;;;17.20;10.13;;;29.90;88.80;;;;;;5035367;28;20041;-62
2022/06/05 11:35:33;;;;;;;14.35;9.35;;;29.90;88.20;;;;;;5028387;28;20025;-62
2022/06/05 11:38:07;;;;;;;16.70;9.43;;;29.70;88.80;;;;;;5034475;28;20036;-63
2022/06/05 11:40:36;;;;;;;16.20;10.05;;;29.60;89.40;;;;;;5042743;28;20035;-64
2022/06/05 11:43:18;;;;;;;17.38;9.73;;;29.30;89.60;;;;;;5042768;28;20485;-62
2022/06/05 11:45:44;;;;;;;17.30;10.30;;;29.00;90.00;;;;;;5018911;28;20037;-63
2022/06/05 11:48:31;;;;;;;15.77;9.73;;;28.40;90.40;;;;;;5051467;28;20334;-62
2022/06/05 11:51:03;;;;;;;16.65;9.98;;;27.70;91.20;;;;;;5038563;28;20632;-61
2022/06/05 11:54:00;;;;;;;16.27;10.20;;;27.40;91.80;;;;;;5035211;28;20041;-63
2022/06/05 11:56:31;;;;;;;17.20;10.60;;;27.10;92.00;;;;;;5035144;28;20028;-66
2022/06/05 11:59:24;;;;;;;17.20;9.73;;;26.60;92.60;;;;;;5042507;28;20413;-62
2022/06/05 12:02:08;;;;;;;18.30;10.77;;;26.20;93.30;;;;;;5037719;28;20078;-62
2022/06/05 12:04:57;;;;;;;19.65;10.45;;;25.60;95.00;;;;;;5048699;28;20094;-63
2022/06/05 12:07:24;;;;;;;15.38;8.75;;;25.10;95.80;;;;;;5022698;28;20381;-61
2022/06/05 12:09:56;;;;;;;17.10;10.48;;;24.60;96.70;;;;;;5050519;28;20025;-61
2022/06/05 12:12:25;;;;;;;19.52;10.65;;;24.00;97.40;;;;;;5038970;28;20123;-60
2022/06/05 12:15:23;;;;;;;19.63;10.82;;;23.70;98.00;;;;;;5046538;28;20018;-61
2022/06/05 12:18:08;;;;;;;18.35;10.65;;;23.50;98.60;;;;;;5022253;28;20480;-60
2022/06/05 12:20:52;;;;;;;17.10;10.10;;;23.40;99.00;;;;;;5019984;28;20536;-61
2022/06/05 12:23:24;;;;;;;18.48;9.93;;;23.30;99.70;;;;;;5029464;28;20029;-61
2022/06/05 12:26:00;;;;;;;17.30;10.20;;;23.20;99.50;;;;;;5017879;28;20370;-60
2022/06/05 12:28:32;;;;;;;17.33;10.00;;;23.00;99.40;;;;;;5015157;28;20030;-62
2022/06/05 12:31:14;;;;;;;17.80;10.82;;;22.90;99.90;;;;;;5015059;28;20054;-63
2022/06/05 12:33:50;;;;;;;20.50;10.73;;;22.80;99.90;;;;;;5022852;28;20935;-61
2022/06/05 12:36:35;;;;;;;19.85;11.57;;;22.70;99.90;;;;;;5022622;28;20022;-61
2022/06/05 12:39:07;;;;;;;18.45;10.63;;;22.60;99.90;;;;;;5038086;28;20113;-62
2022/06/05 12:41:51;;;;;;;17.45;10.82;;;22.50;99.90;;;;;;5037281;28;20064;-62
2022/06/05 12:44:30;;;;;;;19.35;11.13;;;22.50;99.90;;;;;;5031736;28;20119;-61
2022/06/05 12:47:00;;;;;;;18.80;11.50;;;22.40;99.90;;;;;;5014464;28;20124;-62
2022/06/05 12:49:44;;;;;;;19.45;10.82;;;22.30;99.90;;;;;;5013601;28;20125;-63
2022/06/05 12:52:31;;;;;;;20.35;11.10;;;22.00;99.90;;;;;;5026120;28;20112;-61
2022/06/05 12:55:12;;;;;;;20.77;11.88;;;21.70;99.90;;;;;;5014929;28;20091;-63
2022/06/05 12:57:44;;;;;;;20.35;12.32;;;21.40;99.90;;;;;;5013726;28;20028;-62
2022/06/05 13:00:30;;;;;;;23.42;12.60;;;21.20;99.90;;;;;;5014159;28;20148;-61
2022/06/05 13:03:28;;;;;;;21.08;11.75;;;21.00;99.90;;;;;;5014763;28;20014;-61
2022/06/05 13:06:16;;;;;;;22.35;13.45;;;20.90;99.90;;;;;;5005206;28;20470;-61
2022/06/05 13:08:48;;;;;;;22.52;13.73;;;20.80;99.90;;;;;;5032348;28;20033;-61
2022/06/05 13:11:21;;;;;;;;;;;20.60;99.90;;;;;;5027131;28;20101;-63
2022/06/05 13:14:19;;;;;;;24.00;13.05;;;20.60;99.90;;;;;;5015903;28;19996;-61
2022/06/05 13:17:21;;;;;;;21.15;13.82;;;20.50;99.90;;;;;;5025732;28;20036;-63
2022/06/05 13:19:58;;;;;;;20.83;13.07;;;20.40;99.90;;;;;;5025305;28;20034;-61
2022/06/05 13:22:34;;;;;;;22.20;13.40;;;20.30;99.90;;;;;;5010329;28;20030;-64